sensor_id;sensor_type;location;lat;lon;timestamp;P1;durP1;ratioP1;P2;durP2;ratioP2
54157;SDS011;40065;49.894;10.358;2022-11-20T00:02:21;36.72;;;17.38;;
54157;SDS011;40065;49.894;10.358;2022-11-20T00:07:23;36.60;;;17.02;;
54157;SDS011;40065;49.894;10.358;2022-11-20T00:12:25;31.05;;;14.63;;
54157;SDS011;40065;49.894;10.358;2022-11-20T00:17:27;28.85;;;15.18;;
54157;SDS011;40065;49.894;10.358;2022-11-20T00:22:28;37.97;;;18.25;;
54157;SDS011;40065;49.894;10.358;2022-11-20T00:27:30;34.78;;;16.50;;
54157;SDS011;40065;49.894;10.358;2022-11-20T00:32:32;34.70;;;16.75;;
54157;SDS011;40065;49.894;10.358;2022-11-20T00:37:34;40.38;;;18.77;;
54157;SDS011;40065;49.894;10.358;2022-11-20T00:42:36;36.45;;;18.27;;
54157;SDS011;40065;49.894;10.358;2022-11-20T00:47:37;37.63;;;18.48;;
54157;SDS011;40065;49.894;10.358;2022-11-20T00:52:39;32.85;;;16.63;;
54157;SDS011;40065;49.894;10.358;2022-11-20T00:57:41;32.55;;;15.98;;
54157;SDS011;40065;49.894;10.358;2022-11-20T01:02:43;35.03;;;16.70;;
54157;SDS011;40065;49.894;10.358;2022-11-20T01:07:44;43.05;;;19.38;;
54157;SDS011;40065;49.894;10.358;2022-11-20T01:12:46;37.97;;;18.45;;
54157;SDS011;40065;49.894;10.358;2022-11-20T01:18:08;35.70;;;17.58;;
54157;SDS011;40065;49.894;10.358;2022-11-20T01:23:10;31.40;;;14.82;;
54157;SDS011;40065;49.894;10.358;2022-11-20T01:28:11;40.88;;;19.23;;
54157;SDS011;40065;49.894;10.358;2022-11-20T01:33:13;33.92;;;16.38;;
54157;SDS011;40065;49.894;10.358;2022-11-20T01:38:15;33.33;;;15.77;;
54157;SDS011;40065;49.894;10.358;2022-11-20T01:43:18;27.92;;;13.95;;
54157;SDS011;40065;49.894;10.358;2022-11-20T01:48:24;32.47;;;15.48;;
54157;SDS011;40065;49.894;10.358;2022-11-20T01:53:43;37.92;;;17.60;;
54157;SDS011;40065;49.894;10.358;2022-11-20T01:58:48;35.78;;;15.98;;
54157;SDS011;40065;49.894;10.358;2022-11-20T02:03:54;32.20;;;15.77;;
54157;SDS011;40065;49.894;10.358;2022-11-20T02:08:56;41.05;;;18.83;;
54157;SDS011;40065;49.894;10.358;2022-11-20T02:13:58;39.88;;;17.60;;
54157;SDS011;40065;49.894;10.358;2022-11-20T02:19:02;42.05;;;18.90;;
54157;SDS011;40065;49.894;10.358;2022-11-20T02:24:08;35.33;;;15.75;;
54157;SDS011;40065;49.894;10.358;2022-11-20T02:29:16;37.10;;;16.85;;
54157;SDS011;40065;49.894;10.358;2022-11-20T02:34:23;36.92;;;16.05;;
54157;SDS011;40065;49.894;10.358;2022-11-20T02:39:26;42.45;;;17.77;;
54157;SDS011;40065;49.894;10.358;2022-11-20T02:44:29;32.73;;;15.57;;
54157;SDS011;40065;49.894;10.358;2022-11-20T02:49:31;36.80;;;16.85;;
54157;SDS011;40065;49.894;10.358;2022-11-20T02:54:33;40.05;;;18.27;;
54157;SDS011;40065;49.894;10.358;2022-11-20T02:59:34;35.35;;;15.77;;
54157;SDS011;40065;49.894;10.358;2022-11-20T03:04:36;32.22;;;15.27;;
54157;SDS011;40065;49.894;10.358;2022-11-20T03:09:38;30.58;;;14.82;;
54157;SDS011;40065;49.894;10.358;2022-11-20T03:14:40;31.05;;;15.07;;
54157;SDS011;40065;49.894;10.358;2022-11-20T03:19:42;33.90;;;15.88;;
54157;SDS011;40065;49.894;10.358;2022-11-20T03:24:43;30.88;;;14.80;;
54157;SDS011;40065;49.894;10.358;2022-11-20T03:29:45;33.85;;;15.75;;
54157;SDS011;40065;49.894;10.358;2022-11-20T03:34:47;33.35;;;15.48;;
54157;SDS011;40065;49.894;10.358;2022-11-20T03:39:49;31.02;;;15.38;;
54157;SDS011;40065;49.894;10.358;2022-11-20T03:44:50;32.42;;;15.63;;
54157;SDS011;40065;49.894;10.358;2022-11-20T03:49:52;36.45;;;16.75;;
54157;SDS011;40065;49.894;10.358;2022-11-20T03:54:54;32.50;;;15.98;;
54157;SDS011;40065;49.894;10.358;2022-11-20T03:59:56;28.70;;;14.60;;
54157;SDS011;40065;49.894;10.358;2022-11-20T04:04:57;36.55;;;17.25;;
54157;SDS011;40065;49.894;10.358;2022-11-20T04:09:59;33.50;;;16.58;;
54157;SDS011;40065;49.894;10.358;2022-11-20T04:15:01;34.33;;;16.35;;
54157;SDS011;40065;49.894;10.358;2022-11-20T04:20:03;31.85;;;15.52;;
54157;SDS011;40065;49.894;10.358;2022-11-20T04:25:05;27.05;;;13.02;;
54157;SDS011;40065;49.894;10.358;2022-11-20T04:30:07;27.85;;;13.38;;
54157;SDS011;40065;49.894;10.358;2022-11-20T04:35:09;29.35;;;14.50;;
54157;SDS011;40065;49.894;10.358;2022-11-20T04:40:12;34.63;;;15.25;;
54157;SDS011;40065;49.894;10.358;2022-11-20T04:45:13;40.80;;;18.20;;
54157;SDS011;40065;49.894;10.358;2022-11-20T04:50:15;37.00;;;16.88;;
54157;SDS011;40065;49.894;10.358;2022-11-20T04:55:17;34.53;;;15.82;;
54157;SDS011;40065;49.894;10.358;2022-11-20T05:00:19;29.30;;;14.45;;
54157;SDS011;40065;49.894;10.358;2022-11-20T05:05:20;30.92;;;15.18;;
54157;SDS011;40065;49.894;10.358;2022-11-20T05:10:23;33.35;;;15.68;;
54157;SDS011;40065;49.894;10.358;2022-11-20T05:15:25;32.20;;;14.98;;
54157;SDS011;40065;49.894;10.358;2022-11-20T05:20:27;33.03;;;15.70;;
54157;SDS011;40065;49.894;10.358;2022-11-20T05:25:29;41.63;;;18.50;;
54157;SDS011;40065;49.894;10.358;2022-11-20T05:30:30;41.15;;;17.48;;
54157;SDS011;40065;49.894;10.358;2022-11-20T05:35:32;38.70;;;18.23;;
54157;SDS011;40065;49.894;10.358;2022-11-20T05:40:34;32.35;;;14.40;;
54157;SDS011;40065;49.894;10.358;2022-11-20T05:45:36;46.05;;;19.33;;
54157;SDS011;40065;49.894;10.358;2022-11-20T05:50:39;43.33;;;18.67;;
54157;SDS011;40065;49.894;10.358;2022-11-20T05:55:40;42.72;;;18.95;;
54157;SDS011;40065;49.894;10.358;2022-11-20T06:00:42;37.35;;;17.33;;
54157;SDS011;40065;49.894;10.358;2022-11-20T06:05:44;37.53;;;16.25;;
54157;SDS011;40065;49.894;10.358;2022-11-20T06:10:46;42.03;;;19.13;;
54157;SDS011;40065;49.894;10.358;2022-11-20T06:15:48;48.75;;;22.77;;
54157;SDS011;40065;49.894;10.358;2022-11-20T06:20:58;42.95;;;19.45;;
54157;SDS011;40065;49.894;10.358;2022-11-20T06:26:11;38.65;;;17.60;;
54157;SDS011;40065;49.894;10.358;2022-11-20T06:31:16;41.13;;;17.98;;
54157;SDS011;40065;49.894;10.358;2022-11-20T06:36:20;33.42;;;15.20;;
54157;SDS011;40065;49.894;10.358;2022-11-20T06:41:22;30.45;;;14.10;;
54157;SDS011;40065;49.894;10.358;2022-11-20T06:46:24;36.67;;;16.00;;
54157;SDS011;40065;49.894;10.358;2022-11-20T06:51:26;35.88;;;15.50;;
54157;SDS011;40065;49.894;10.358;2022-11-20T06:56:28;33.22;;;15.23;;
54157;SDS011;40065;49.894;10.358;2022-11-20T07:01:30;36.83;;;16.02;;
54157;SDS011;40065;49.894;10.358;2022-11-20T07:06:31;41.65;;;18.52;;
54157;SDS011;40065;49.894;10.358;2022-11-20T07:11:33;37.30;;;17.63;;
54157;SDS011;40065;49.894;10.358;2022-11-20T07:16:35;39.13;;;18.02;;
54157;SDS011;40065;49.894;10.358;2022-11-20T07:21:37;34.92;;;16.08;;
54157;SDS011;40065;49.894;10.358;2022-11-20T07:26:38;43.10;;;19.33;;
54157;SDS011;40065;49.894;10.358;2022-11-20T07:31:40;33.83;;;15.90;;
54157;SDS011;40065;49.894;10.358;2022-11-20T07:36:42;36.67;;;17.77;;
54157;SDS011;40065;49.894;10.358;2022-11-20T07:41:44;34.22;;;16.27;;
54157;SDS011;40065;49.894;10.358;2022-11-20T07:46:45;39.50;;;18.48;;
54157;SDS011;40065;49.894;10.358;2022-11-20T07:51:49;32.28;;;16.52;;
54157;SDS011;40065;49.894;10.358;2022-11-20T07:56:52;36.80;;;17.50;;
54157;SDS011;40065;49.894;10.358;2022-11-20T08:01:55;36.03;;;18.05;;
54157;SDS011;40065;49.894;10.358;2022-11-20T08:06:57;34.55;;;17.33;;
54157;SDS011;40065;49.894;10.358;2022-11-20T08:11:59;39.05;;;19.77;;
54157;SDS011;40065;49.894;10.358;2022-11-20T08:17:19;46.72;;;22.30;;
54157;SDS011;40065;49.894;10.358;2022-11-20T08:22:21;41.40;;;19.45;;
54157;SDS011;40065;49.894;10.358;2022-11-20T08:27:22;44.95;;;19.58;;
54157;SDS011;40065;49.894;10.358;2022-11-20T08:32:24;39.50;;;17.15;;
54157;SDS011;40065;49.894;10.358;2022-11-20T08:37:26;43.75;;;21.60;;
54157;SDS011;40065;49.894;10.358;2022-11-20T08:42:28;32.10;;;16.25;;
54157;SDS011;40065;49.894;10.358;2022-11-20T08:47:29;37.35;;;16.63;;
54157;SDS011;40065;49.894;10.358;2022-11-20T08:52:31;56.50;;;26.27;;
54157;SDS011;40065;49.894;10.358;2022-11-20T08:57:39;55.28;;;27.23;;
54157;SDS011;40065;49.894;10.358;2022-11-20T09:02:41;35.10;;;17.08;;
54157;SDS011;40065;49.894;10.358;2022-11-20T09:07:43;40.78;;;18.83;;
54157;SDS011;40065;49.894;10.358;2022-11-20T09:12:48;32.75;;;15.55;;
54157;SDS011;40065;49.894;10.358;2022-11-20T09:17:53;36.47;;;15.73;;
54157;SDS011;40065;49.894;10.358;2022-11-20T09:22:56;31.30;;;15.25;;
54157;SDS011;40065;49.894;10.358;2022-11-20T09:27:58;42.47;;;20.98;;
54157;SDS011;40065;49.894;10.358;2022-11-20T09:33:00;47.60;;;22.92;;
54157;SDS011;40065;49.894;10.358;2022-11-20T09:38:05;37.15;;;20.27;;
54157;SDS011;40065;49.894;10.358;2022-11-20T09:53:54;39.25;;;18.48;;
54157;SDS011;40065;49.894;10.358;2022-11-20T09:59:04;38.65;;;18.88;;
54157;SDS011;40065;49.894;10.358;2022-11-20T10:04:17;36.72;;;17.80;;
54157;SDS011;40065;49.894;10.358;2022-11-20T10:09:23;33.88;;;16.20;;
54157;SDS011;40065;49.894;10.358;2022-11-20T10:25:19;31.85;;;14.98;;
54157;SDS011;40065;49.894;10.358;2022-11-20T10:30:23;42.90;;;21.38;;
54157;SDS011;40065;49.894;10.358;2022-11-20T10:35:45;40.60;;;19.38;;
54157;SDS011;40065;49.894;10.358;2022-11-20T10:40:51;35.17;;;16.27;;
54157;SDS011;40065;49.894;10.358;2022-11-20T10:46:18;35.78;;;17.30;;
54157;SDS011;40065;49.894;10.358;2022-11-20T10:51:40;34.38;;;15.93;;
54157;SDS011;40065;49.894;10.358;2022-11-20T10:57:08;30.52;;;15.80;;
54157;SDS011;40065;49.894;10.358;2022-11-20T11:02:29;26.67;;;14.88;;
54157;SDS011;40065;49.894;10.358;2022-11-20T11:07:56;27.52;;;14.52;;
54157;SDS011;40065;49.894;10.358;2022-11-20T11:12:59;31.65;;;18.50;;
54157;SDS011;40065;49.894;10.358;2022-11-20T11:18:01;27.38;;;13.35;;
54157;SDS011;40065;49.894;10.358;2022-11-20T11:23:03;22.98;;;10.88;;
54157;SDS011;40065;49.894;10.358;2022-11-20T11:33:20;21.67;;;11.60;;
54157;SDS011;40065;49.894;10.358;2022-11-20T11:38:40;29.67;;;14.15;;
54157;SDS011;40065;49.894;10.358;2022-11-20T11:43:51;21.40;;;10.85;;
54157;SDS011;40065;49.894;10.358;2022-11-20T11:49:15;23.20;;;11.70;;
54157;SDS011;40065;49.894;10.358;2022-11-20T11:54:25;21.85;;;11.95;;
54157;SDS011;40065;49.894;10.358;2022-11-20T12:05:08;21.10;;;10.98;;
54157;SDS011;40065;49.894;10.358;2022-11-20T12:10:45;23.42;;;11.95;;
54157;SDS011;40065;49.894;10.358;2022-11-20T12:15:43;26.17;;;13.23;;
54157;SDS011;40065;49.894;10.358;2022-11-20T12:26:00;35.70;;;18.30;;
54157;SDS011;40065;49.894;10.358;2022-11-20T12:42:10;37.20;;;16.85;;
54157;SDS011;40065;49.894;10.358;2022-11-20T12:53:05;30.38;;;13.50;;
54157;SDS011;40065;49.894;10.358;2022-11-20T12:58:33;34.33;;;15.67;;
54157;SDS011;40065;49.894;10.358;2022-11-20T13:08:57;38.53;;;16.95;;
54157;SDS011;40065;49.894;10.358;2022-11-20T13:19:41;31.63;;;15.48;;
54157;SDS011;40065;49.894;10.358;2022-11-20T13:24:50;30.83;;;14.13;;
54157;SDS011;40065;49.894;10.358;2022-11-20T13:30:12;33.72;;;15.27;;
54157;SDS011;40065;49.894;10.358;2022-11-20T13:40:53;40.63;;;18.70;;
54157;SDS011;40065;49.894;10.358;2022-11-20T13:46:04;43.73;;;20.30;;
54157;SDS011;40065;49.894;10.358;2022-11-20T13:57:04;40.17;;;19.30;;
54157;SDS011;40065;49.894;10.358;2022-11-20T14:02:21;60.15;;;27.98;;
54157;SDS011;40065;49.894;10.358;2022-11-20T14:07:35;37.75;;;17.10;;
54157;SDS011;40065;49.894;10.358;2022-11-20T14:12:40;35.95;;;16.77;;
54157;SDS011;40065;49.894;10.358;2022-11-20T14:17:42;33.60;;;16.30;;
54157;SDS011;40065;49.894;10.358;2022-11-20T14:22:50;33.95;;;15.52;;
54157;SDS011;40065;49.894;10.358;2022-11-20T14:27:54;28.50;;;14.00;;
54157;SDS011;40065;49.894;10.358;2022-11-20T14:32:59;36.45;;;15.93;;
54157;SDS011;40065;49.894;10.358;2022-11-20T14:38:04;34.75;;;15.98;;
54157;SDS011;40065;49.894;10.358;2022-11-20T14:43:21;33.75;;;14.90;;
54157;SDS011;40065;49.894;10.358;2022-11-20T14:48:30;32.80;;;14.82;;
54157;SDS011;40065;49.894;10.358;2022-11-20T14:53:44;30.40;;;13.77;;
54157;SDS011;40065;49.894;10.358;2022-11-20T14:58:54;32.67;;;14.10;;
54157;SDS011;40065;49.894;10.358;2022-11-20T15:04:04;26.45;;;13.15;;
54157;SDS011;40065;49.894;10.358;2022-11-20T15:09:13;34.50;;;15.73;;
54157;SDS011;40065;49.894;10.358;2022-11-20T15:14:16;35.17;;;16.57;;
54157;SDS011;40065;49.894;10.358;2022-11-20T15:19:22;27.42;;;12.82;;
54157;SDS011;40065;49.894;10.358;2022-11-20T15:24:25;32.55;;;15.23;;
54157;SDS011;40065;49.894;10.358;2022-11-20T15:29:27;32.38;;;14.52;;
54157;SDS011;40065;49.894;10.358;2022-11-20T15:34:29;35.10;;;16.08;;
54157;SDS011;40065;49.894;10.358;2022-11-20T15:39:30;27.52;;;12.98;;
54157;SDS011;40065;49.894;10.358;2022-11-20T15:44:32;28.45;;;12.98;;
54157;SDS011;40065;49.894;10.358;2022-11-20T15:49:34;27.38;;;12.63;;
54157;SDS011;40065;49.894;10.358;2022-11-20T15:54:36;22.02;;;10.85;;
54157;SDS011;40065;49.894;10.358;2022-11-20T15:59:38;28.60;;;12.30;;
54157;SDS011;40065;49.894;10.358;2022-11-20T16:04:42;22.90;;;11.23;;
54157;SDS011;40065;49.894;10.358;2022-11-20T16:09:44;23.05;;;11.15;;
54157;SDS011;40065;49.894;10.358;2022-11-20T16:14:46;26.75;;;12.68;;
54157;SDS011;40065;49.894;10.358;2022-11-20T16:20:13;27.42;;;13.10;;
54157;SDS011;40065;49.894;10.358;2022-11-20T16:25:16;25.63;;;12.02;;
54157;SDS011;40065;49.894;10.358;2022-11-20T16:30:18;33.17;;;14.32;;
54157;SDS011;40065;49.894;10.358;2022-11-20T16:35:20;26.77;;;14.05;;
54157;SDS011;40065;49.894;10.358;2022-11-20T16:40:22;26.67;;;13.43;;
54157;SDS011;40065;49.894;10.358;2022-11-20T16:45:24;32.17;;;14.13;;
54157;SDS011;40065;49.894;10.358;2022-11-20T16:50:32;27.08;;;12.90;;
54157;SDS011;40065;49.894;10.358;2022-11-20T16:55:34;24.98;;;12.10;;
54157;SDS011;40065;49.894;10.358;2022-11-20T17:00:36;27.48;;;13.40;;
54157;SDS011;40065;49.894;10.358;2022-11-20T17:05:39;21.45;;;10.68;;
54157;SDS011;40065;49.894;10.358;2022-11-20T17:10:41;24.15;;;11.18;;
54157;SDS011;40065;49.894;10.358;2022-11-20T17:15:43;18.35;;;10.18;;
54157;SDS011;40065;49.894;10.358;2022-11-20T17:20:50;23.85;;;11.93;;
54157;SDS011;40065;49.894;10.358;2022-11-20T17:25:52;22.75;;;10.73;;
54157;SDS011;40065;49.894;10.358;2022-11-20T17:30:57;23.70;;;11.75;;
54157;SDS011;40065;49.894;10.358;2022-11-20T17:36:00;22.50;;;11.32;;
54157;SDS011;40065;49.894;10.358;2022-11-20T17:41:06;21.65;;;10.23;;
54157;SDS011;40065;49.894;10.358;2022-11-20T17:46:11;24.13;;;10.13;;
54157;SDS011;40065;49.894;10.358;2022-11-20T17:51:18;18.92;;;8.93;;
54157;SDS011;40065;49.894;10.358;2022-11-20T17:56:25;21.63;;;10.65;;
54157;SDS011;40065;49.894;10.358;2022-11-20T18:01:49;19.43;;;10.17;;
54157;SDS011;40065;49.894;10.358;2022-11-20T18:06:51;24.45;;;11.35;;
54157;SDS011;40065;49.894;10.358;2022-11-20T18:11:52;19.63;;;9.65;;
54157;SDS011;40065;49.894;10.358;2022-11-20T18:16:55;21.45;;;10.65;;
54157;SDS011;40065;49.894;10.358;2022-11-20T18:22:14;23.15;;;11.85;;
54157;SDS011;40065;49.894;10.358;2022-11-20T18:27:18;19.73;;;9.97;;
54157;SDS011;40065;49.894;10.358;2022-11-20T18:32:21;20.45;;;10.35;;
54157;SDS011;40065;49.894;10.358;2022-11-20T18:37:23;23.98;;;11.30;;
54157;SDS011;40065;49.894;10.358;2022-11-20T18:42:25;19.27;;;10.63;;
54157;SDS011;40065;49.894;10.358;2022-11-20T18:47:45;24.88;;;12.93;;
54157;SDS011;40065;49.894;10.358;2022-11-20T18:52:47;27.20;;;11.70;;
54157;SDS011;40065;49.894;10.358;2022-11-20T18:57:49;20.40;;;11.25;;
54157;SDS011;40065;49.894;10.358;2022-11-20T19:02:52;22.33;;;11.73;;
54157;SDS011;40065;49.894;10.358;2022-11-20T19:07:54;19.40;;;11.38;;
54157;SDS011;40065;49.894;10.358;2022-11-20T19:12:56;16.42;;;9.05;;
54157;SDS011;40065;49.894;10.358;2022-11-20T19:17:59;13.82;;;7.88;;
54157;SDS011;40065;49.894;10.358;2022-11-20T19:23:01;12.40;;;6.38;;
54157;SDS011;40065;49.894;10.358;2022-11-20T19:28:03;10.65;;;6.90;;
54157;SDS011;40065;49.894;10.358;2022-11-20T19:33:05;15.60;;;7.57;;
54157;SDS011;40065;49.894;10.358;2022-11-20T19:38:08;11.57;;;7.03;;
54157;SDS011;40065;49.894;10.358;2022-11-20T19:43:10;13.48;;;6.85;;
54157;SDS011;40065;49.894;10.358;2022-11-20T19:48:12;9.05;;;6.20;;
54157;SDS011;40065;49.894;10.358;2022-11-20T19:53:14;9.73;;;5.70;;
54157;SDS011;40065;49.894;10.358;2022-11-20T19:58:16;10.38;;;5.72;;
54157;SDS011;40065;49.894;10.358;2022-11-20T20:03:18;9.68;;;5.18;;
54157;SDS011;40065;49.894;10.358;2022-11-20T20:08:20;7.00;;;4.60;;
54157;SDS011;40065;49.894;10.358;2022-11-20T20:13:22;11.80;;;5.45;;
54157;SDS011;40065;49.894;10.358;2022-11-20T20:18:25;9.82;;;5.10;;
54157;SDS011;40065;49.894;10.358;2022-11-20T20:23:26;12.00;;;5.47;;
54157;SDS011;40065;49.894;10.358;2022-11-20T20:28:28;8.02;;;5.32;;
54157;SDS011;40065;49.894;10.358;2022-11-20T20:33:30;9.18;;;5.10;;
54157;SDS011;40065;49.894;10.358;2022-11-20T20:38:32;14.93;;;5.50;;
54157;SDS011;40065;49.894;10.358;2022-11-20T20:43:35;13.75;;;4.80;;
54157;SDS011;40065;49.894;10.358;2022-11-20T20:48:57;6.50;;;4.00;;
54157;SDS011;40065;49.894;10.358;2022-11-20T20:53:59;8.70;;;4.63;;
54157;SDS011;40065;49.894;10.358;2022-11-20T20:59:02;7.28;;;4.03;;
54157;SDS011;40065;49.894;10.358;2022-11-20T21:04:04;10.15;;;3.42;;
54157;SDS011;40065;49.894;10.358;2022-11-20T21:09:06;5.88;;;3.22;;
54157;SDS011;40065;49.894;10.358;2022-11-20T21:14:07;7.75;;;3.30;;
54157;SDS011;40065;49.894;10.358;2022-11-20T21:19:10;5.90;;;3.00;;
54157;SDS011;40065;49.894;10.358;2022-11-20T21:24:12;6.90;;;3.40;;
54157;SDS011;40065;49.894;10.358;2022-11-20T21:29:14;4.97;;;2.72;;
54157;SDS011;40065;49.894;10.358;2022-11-20T21:34:16;7.10;;;2.42;;
54157;SDS011;40065;49.894;10.358;2022-11-20T21:39:18;3.28;;;2.00;;
54157;SDS011;40065;49.894;10.358;2022-11-20T21:44:22;4.55;;;2.40;;
54157;SDS011;40065;49.894;10.358;2022-11-20T21:49:31;4.22;;;2.25;;
54157;SDS011;40065;49.894;10.358;2022-11-20T21:54:33;5.43;;;2.58;;
54157;SDS011;40065;49.894;10.358;2022-11-20T21:59:36;3.55;;;2.72;;
54157;SDS011;40065;49.894;10.358;2022-11-20T22:04:38;3.40;;;2.53;;
54157;SDS011;40065;49.894;10.358;2022-11-20T22:09:40;3.85;;;2.42;;
54157;SDS011;40065;49.894;10.358;2022-11-20T22:14:41;3.90;;;2.13;;
54157;SDS011;40065;49.894;10.358;2022-11-20T22:19:44;4.05;;;2.42;;
54157;SDS011;40065;49.894;10.358;2022-11-20T22:24:46;3.65;;;2.33;;
54157;SDS011;40065;49.894;10.358;2022-11-20T22:29:48;5.05;;;2.45;;
54157;SDS011;40065;49.894;10.358;2022-11-20T22:34:49;3.40;;;2.30;;
54157;SDS011;40065;49.894;10.358;2022-11-20T22:39:51;3.85;;;2.50;;
54157;SDS011;40065;49.894;10.358;2022-11-20T22:44:53;3.28;;;2.20;;
54157;SDS011;40065;49.894;10.358;2022-11-20T22:49:55;3.50;;;2.20;;
54157;SDS011;40065;49.894;10.358;2022-11-20T22:54:56;3.25;;;2.17;;
54157;SDS011;40065;49.894;10.358;2022-11-20T22:59:58;3.38;;;2.22;;
54157;SDS011;40065;49.894;10.358;2022-11-20T23:05:00;4.82;;;2.28;;
54157;SDS011;40065;49.894;10.358;2022-11-20T23:10:02;4.53;;;2.40;;
54157;SDS011;40065;49.894;10.358;2022-11-20T23:15:05;5.03;;;2.70;;
54157;SDS011;40065;49.894;10.358;2022-11-20T23:20:07;3.75;;;2.50;;
54157;SDS011;40065;49.894;10.358;2022-11-20T23:25:10;5.53;;;2.72;;
54157;SDS011;40065;49.894;10.358;2022-11-20T23:30:12;4.10;;;2.42;;
54157;SDS011;40065;49.894;10.358;2022-11-20T23:35:14;7.43;;;2.40;;
54157;SDS011;40065;49.894;10.358;2022-11-20T23:40:15;6.20;;;3.05;;
54157;SDS011;40065;49.894;10.358;2022-11-20T23:45:17;4.28;;;2.40;;
54157;SDS011;40065;49.894;10.358;2022-11-20T23:50:19;4.70;;;2.72;;
54157;SDS011;40065;49.894;10.358;2022-11-20T23:55:21;6.60;;;3.08;;
